Main page
METAR-TAF:

METAR-TAF

Airports :

Beirut, Lebanon

Beirut Air Base

latitude: 33-49N, longitude: 035-29E, elevation: 29 m

Current weather observation

The report was made 59 minutes ago, at 22:00 UTC
Wind 4 kt from the Southeast, varying between East and South
Temperature 27°C
Humidity 66%
Pressure 1011 hPa
Visibility: 8000 m
Few clouds at a height of 2600 ft

METAR: OLBA 232200Z 13004KT 100V180 8000 FEW026 27/20 Q1011

Time: 01:59 (22:59 UTC)

Forecast

The report was made 6 hours and 59 minutes ago, at 16:00 UTC
Forecast valid from 23 at 18 UTC to 24 at 24 UTC
Wind 8 kt from the South/Southeast, varying between Southeast and South/Southwest
Visibility: 8000 m
Scattered clouds at a height of 2600 ft
Becoming
from 24 at 06 UTC to 24 at 09 UTC
Wind 10 kt from the West/Southwest
Becoming
from 24 at 18 UTC to 24 at 21 UTC
Wind 8 kt from the South
Visibility: 7000 m
Broken clouds at a height of 2600 ft

TAF: OLBA 231600Z 2318/2424 15008KT 140V200 8000 SCT026 BECMG 2406/2409 24010KT BECMG 2418/2421 18008KT 7000 BKN026

Weather observations and forecasts of more than 4000 airports (METAR and TAF reports).

The available stations are represented by yellow and red dots on the map.

Hover mouse over dot to see the name of the station.

Then click to see weather observations and forecasts.

To change the map : click on the green buttons with a black cross to zoom in, on the green button with a dash to zoom out, or on the green arrows for adjacent maps.


METAR-TAF: